Time;durP1;ratioP1;P1;durP2;ratioP2;P2;SDS_P1;SDS_P2;PMS_P1;PMS_P2;Temp;Humidity;BMP_temperature;BMP_pressure;BME280_temperature;BME280_humidity;BME280_pressure;Samples;Min_cycle;Max_cycle;Signal;HPM_P1;HPM_P2
2020/12/15 00:00:31;;;;;;;6.67;4.60;;;;;;;4.11;100.00;97923.73;3705846;79;44627;-21
2020/12/15 00:05:38;;;;;;;7.40;4.87;;;;;;;4.16;100.00;97919.69;3688382;79;43411;-21
2020/12/15 00:10:44;;;;;;;7.03;4.47;;;;;;;4.17;100.00;97917.89;3700505;79;44038;-21
2020/12/15 00:15:50;;;;;;;8.00;4.60;;;;;;;4.24;100.00;97927.03;3708676;79;43713;-21
2020/12/15 00:20:56;;;;;;;7.53;4.63;;;;;;;4.35;100.00;97923.91;3712710;78;44238;-22
2020/12/15 00:26:03;;;;;;;5.63;4.10;;;;;;;4.35;100.00;97914.08;3733502;78;43693;-22
2020/12/15 00:31:08;;;;;;;6.50;4.47;;;;;;;4.39;100.00;97905.34;3755637;77;43397;-22
2020/12/15 00:36:20;;;;;;;7.27;5.07;;;;;;;4.42;100.00;97905.05;3724030;78;43655;-23
2020/12/15 00:41:26;;;;;;;6.77;4.67;;;;;;;4.46;100.00;97901.14;3735622;78;44479;-23
2020/12/15 00:46:33;;;;;;;6.83;5.10;;;;;;;4.44;100.00;97911.96;3770546;78;44089;-22
2020/12/15 00:51:38;;;;;;;5.53;4.50;;;;;;;4.47;100.00;97917.51;3727219;78;44189;-22
2020/12/15 00:56:46;;;;;;;8.63;4.80;;;;;;;4.56;100.00;97919.86;3730108;78;43290;-23
2020/12/15 01:01:52;;;;;;;7.87;5.00;;;;;;;4.56;100.00;97919.86;3722125;77;44095;-22
2020/12/15 01:06:58;;;;;;;6.10;4.50;;;;;;;4.59;100.00;97914.23;3731016;78;43124;-23
2020/12/15 01:12:10;;;;;;;7.83;4.87;;;;;;;4.61;100.00;97914.94;3785338;78;43955;-22
2020/12/15 01:17:17;;;;;;;8.10;5.20;;;;;;;4.61;100.00;97903.80;3759736;78;43380;-23
2020/12/15 01:22:25;;;;;;;8.10;4.90;;;;;;;4.62;100.00;97895.29;3742066;79;43419;-22
2020/12/15 01:27:30;;;;;;;7.13;5.10;;;;;;;4.66;100.00;97894.52;3732588;78;43997;-21
2020/12/15 01:32:44;;;;;;;7.07;4.73;;;;;;;4.66;100.00;97896.72;3690811;78;26862;-22
2020/12/15 01:37:50;;;;;;;6.70;4.60;;;;;;;4.67;100.00;97894.41;3739737;78;44345;-23
2020/12/15 01:42:57;;;;;;;6.97;4.93;;;;;;;4.69;100.00;97882.25;3681388;79;26402;-22
2020/12/15 01:48:04;;;;;;;7.77;5.07;;;;;;;4.66;100.00;97874.51;3672580;80;43359;-22
2020/12/15 01:53:14;;;;;;;7.00;4.97;;;;;;;4.71;100.00;97871.78;3749581;79;26957;-22
2020/12/15 01:58:22;;;;;;;7.40;4.90;;;;;;;4.65;100.00;97872.81;3752718;78;26953;-22
2020/12/15 02:03:29;;;;;;;6.97;5.30;;;;;;;4.68;100.00;97875.22;3765447;78;26382;-22
2020/12/15 02:08:55;;;;;;;6.50;4.10;;;;;;;4.72;100.00;97869.97;3721220;77;27408;-23
2020/12/15 02:14:02;;;;;;;6.33;4.43;;;;;;;4.68;100.00;97862.73;3714984;78;43428;-22
2020/12/15 02:19:10;;;;;;;5.23;3.93;;;;;;;4.69;100.00;97866.23;3712245;78;42966;-23
2020/12/15 02:24:16;;;;;;;5.23;3.97;;;;;;;4.75;100.00;97859.86;3754550;78;43096;-22
2020/12/15 02:29:25;;;;;;;5.90;4.17;;;;;;;4.82;100.00;97855.32;3773227;78;26385;-22
2020/12/15 02:34:30;;;;;;;5.43;3.90;;;;;;;4.80;100.00;97851.94;3729738;79;43694;-22
2020/12/15 02:39:37;;;;;;;5.53;3.60;;;;;;;4.81;100.00;97856.30;3768976;76;43711;-22
2020/12/15 02:44:46;;;;;;;6.33;3.97;;;;;;;4.82;100.00;97857.48;3752609;78;26383;-22
2020/12/15 02:49:54;;;;;;;5.90;3.60;;;;;;;5.04;100.00;97859.53;3741211;78;26427;-23
2020/12/15 02:55:00;;;;;;;4.77;3.33;;;;;;;5.04;100.00;97877.74;3771968;78;43999;-22
2020/12/15 03:00:09;;;;;;;5.10;3.33;;;;;;;5.12;100.00;97880.20;3751703;79;26746;-22
2020/12/15 03:05:18;;;;;;;4.83;3.73;;;;;;;5.20;100.00;97889.20;3750152;79;26714;-22
2020/12/15 03:10:23;;;;;;;4.60;3.33;;;;;;;5.26;100.00;97897.14;3749569;78;44047;-22
2020/12/15 03:15:30;;;;;;;4.70;3.50;;;;;;;5.22;94.65;97895.72;3751691;78;43713;-22
2020/12/15 03:20:36;;;;;;;4.90;3.57;;;;;;;5.36;96.11;97898.45;3752177;79;43690;-22
2020/12/15 03:25:43;;;;;;;4.77;3.37;;;;;;;5.14;95.92;97911.61;3744377;78;43478;-22
2020/12/15 03:30:49;;;;;;;4.70;3.57;;;;;;;5.48;95.54;97916.03;3695151;79;44003;-23
2020/12/15 03:35:55;;;;;;;4.73;3.40;;;;;;;5.33;93.69;97907.60;3751769;79;43424;-23
2020/12/15 03:41:02;;;;;;;5.03;3.47;;;;;;;5.38;94.04;97900.02;3747555;78;44071;-22
2020/12/15 03:46:10;;;;;;;4.07;3.30;;;;;;;5.27;92.70;97910.85;3736111;78;26445;-22
2020/12/15 03:51:16;;;;;;;6.03;3.70;;;;;;;5.21;97.04;97912.25;3745013;78;42883;-22
2020/12/15 03:56:40;;;;;;;7.23;4.63;;;;;;;4.99;96.51;97920.52;3758114;78;26373;-21
2020/12/15 04:01:46;;;;;;;5.10;3.97;;;;;;;4.93;95.38;97924.09;3730718;79;43990;-22
2020/12/15 04:06:52;;;;;;;6.13;4.37;;;;;;;4.89;97.53;97921.83;3754693;78;43038;-21
2020/12/15 04:12:00;;;;;;;5.97;4.00;;;;;;;4.90;95.74;97925.69;3771254;78;27593;-22
2020/12/15 04:17:08;;;;;;;5.30;3.87;;;;;;;4.66;96.39;97906.05;3721639;78;42918;-22
2020/12/15 04:22:15;;;;;;;5.10;3.60;;;;;;;4.72;96.64;97892.15;3740903;79;44066;-25
2020/12/15 04:27:23;;;;;;;5.33;3.63;;;;;;;4.70;97.42;97881.27;3725055;79;27063;-25
2020/12/15 04:32:29;;;;;;;5.97;4.30;;;;;;;4.65;98.09;97874.16;3712369;79;44039;-24
2020/12/15 04:37:43;;;;;;;5.20;3.73;;;;;;;4.47;98.21;97874.83;3711767;79;26843;-24
2020/12/15 04:42:52;;;;;;;5.33;3.67;;;;;;;4.53;97.32;97873.44;3787276;77;26914;-24
2020/12/15 04:48:06;;;;;;;7.90;3.83;;;;;;;4.53;98.28;97876.94;3796119;77;43975;-24
2020/12/15 04:53:17;;;;;;;4.87;3.50;;;;;;;4.49;98.11;97882.21;3781662;77;26380;-24
2020/12/15 04:58:25;;;;;;;4.97;3.83;;;;;;;4.37;97.58;97864.63;3780490;77;26355;-24
2020/12/15 05:03:36;;;;;;;5.43;3.80;;;;;;;4.38;99.23;97868.98;3795381;77;44136;-25
2020/12/15 05:08:48;;;;;;;5.57;3.83;;;;;;;4.30;100.00;97878.98;3803720;77;43385;-25
2020/12/15 05:13:54;;;;;;;6.70;4.37;;;;;;;4.29;100.00;97870.12;3788139;77;44032;-25
2020/12/15 05:19:05;;;;;;;5.60;4.13;;;;;;;4.23;100.00;97874.68;3815950;76;44513;-25
2020/12/15 05:24:13;;;;;;;6.93;4.20;;;;;;;4.29;100.00;97881.30;3791314;76;26461;-25
2020/12/15 05:29:22;;;;;;;6.67;4.17;;;;;;;4.28;100.00;97875.61;3769097;78;27662;-25
2020/12/15 05:34:42;;;;;;;7.47;4.70;;;;;;;4.30;100.00;97867.81;3692377;79;26756;-27
2020/12/15 05:40:05;;;;;;;6.37;4.10;;;;;;;4.36;100.00;97861.60;3699721;79;26366;-27
2020/12/15 05:45:20;;;;;;;7.13;3.93;;;;;;;4.38;99.23;97863.14;3761614;78;27169;-28
2020/12/15 05:50:26;;;;;;;6.37;4.30;;;;;;;4.35;97.11;97890.58;3694965;80;43302;-27
2020/12/15 05:55:32;;;;;;;5.60;3.97;;;;;;;4.40;99.04;97885.20;3758475;76;43492;-27
2020/12/15 06:00:38;;;;;;;5.47;3.93;;;;;;;4.30;99.21;97872.32;3739376;79;43389;-27
2020/12/15 06:05:47;;;;;;;6.30;4.10;;;;;;;4.28;100.00;97855.13;3752098;78;44014;-27
2020/12/15 06:10:56;;;;;;;5.60;3.90;;;;;;;4.31;100.00;97872.67;3766012;78;44054;-27
2020/12/15 06:16:02;;;;;;;6.67;4.20;;;;;;;4.36;97.95;97873.09;3715218;79;44038;-25
2020/12/15 06:21:13;;;;;;;5.23;3.87;;;;;;;4.47;97.14;97893.50;3697287;78;44031;-25
2020/12/15 06:26:26;;;;;;;6.83;4.17;;;;;;;4.52;97.10;97878.42;3711350;77;44079;-25
2020/12/15 06:31:33;;;;;;;6.40;4.50;;;;;;;4.48;96.99;97900.53;3740749;78;44450;-26
2020/12/15 06:36:41;;;;;;;4.93;3.67;;;;;;;4.52;96.67;97891.75;3739680;78;44137;-25
2020/12/15 06:41:56;;;;;;;5.17;3.57;;;;;;;4.61;95.88;97889.13;3872561;75;44930;-25
2020/12/15 06:47:03;;;;;;;5.70;3.83;;;;;;;4.68;97.83;97877.41;3855247;75;43709;-25
2020/12/15 06:52:09;;;;;;;6.70;3.97;;;;;;;4.81;94.79;97893.66;3892228;75;44230;-25
2020/12/15 06:57:17;;;;;;;5.17;3.80;;;;;;;4.79;94.83;97876.44;3908490;74;44120;-25
2020/12/15 07:02:25;;;;;;;7.63;4.20;;;;;;;4.84;94.95;97882.69;3912382;75;43338;-26
2020/12/15 07:07:36;;;;;;;5.47;3.93;;;;;;;4.92;93.83;97877.52;3880068;75;43461;-25
2020/12/15 07:12:45;;;;;;;6.03;4.00;;;;;;;4.90;95.82;97875.48;3872685;75;44065;-25
2020/12/15 07:17:52;;;;;;;5.43;3.93;;;;;;;4.82;97.80;97874.00;3882048;75;44120;-26
2020/12/15 07:22:58;;;;;;;7.87;4.37;;;;;;;4.83;100.00;97868.52;3889442;75;44011;-25
2020/12/15 07:28:04;;;;;;;6.30;3.93;;;;;;;4.86;100.00;97874.92;3874050;75;44182;-25
2020/12/15 07:33:17;;;;;;;6.60;4.27;;;;;;;4.89;99.64;97875.95;3846361;75;44722;-26
2020/12/15 07:38:24;;;;;;;6.00;4.33;;;;;;;4.94;99.92;97871.53;3830618;76;44192;-25
2020/12/15 07:43:31;;;;;;;6.37;4.43;;;;;;;4.99;100.00;97892.50;3842502;76;43453;-25
2020/12/15 07:48:38;;;;;;;6.97;4.60;;;;;;;5.06;98.27;97902.45;3861457;76;44046;-26
2020/12/15 07:53:52;;;;;;;7.07;4.50;;;;;;;5.12;96.91;97898.89;3839419;76;44198;-26
2020/12/15 07:59:00;;;;;;;7.40;4.77;;;;;;;5.19;95.19;97907.53;3854121;76;43296;-26
2020/12/15 08:04:09;;;;;;;6.03;4.13;;;;;;;5.22;95.42;97921.95;3863107;75;43647;-25
2020/12/15 08:09:16;;;;;;;7.77;4.70;;;;;;;5.32;94.72;97918.44;3852488;76;44070;-26
2020/12/15 08:14:23;;;;;;;7.37;4.80;;;;;;;5.39;98.90;97914.20;3879602;76;44047;-25
2020/12/15 08:19:29;;;;;;;6.23;4.43;;;;;;;5.34;97.70;97906.63;3884104;76;44082;-26
2020/12/15 08:24:40;;;;;;;7.50;5.27;;;;;;;5.36;99.79;97903.80;3877337;76;43730;-26
2020/12/15 08:29:44;;;;;;;8.23;5.10;;;;;;;5.38;100.00;97905.84;3855368;76;44003;-25
2020/12/15 08:34:57;;;;;;;8.27;5.40;;;;;;;5.35;100.00;97910.98;3877293;75;44771;-26
2020/12/15 08:40:03;;;;;;;8.23;5.47;;;;;;;5.35;100.00;97915.50;3856111;76;43777;-26
2020/12/15 08:45:17;;;;;;;12.23;7.00;;;;;;;5.35;100.00;97920.33;3890314;76;43341;-25
2020/12/15 08:50:25;;;;;;;7.90;5.27;;;;;;;5.34;100.00;97923.16;3857238;76;43422;-26
2020/12/15 08:55:32;;;;;;;9.97;6.10;;;;;;;5.39;100.00;97925.75;3851091;76;44096;-24
2020/12/15 09:00:42;;;;;;;8.70;5.70;;;;;;;5.42;100.00;97929.10;3856932;76;43998;-26
2020/12/15 09:05:50;;;;;;;9.43;6.13;;;;;;;5.38;100.00;97932.08;3834857;75;44086;-26
2020/12/15 09:10:58;;;;;;;9.27;6.03;;;;;;;5.41;100.00;97933.62;3869757;76;43495;-27
2020/12/15 09:16:04;;;;;;;9.50;6.50;;;;;;;5.48;100.00;97944.59;3851771;76;44013;-26
2020/12/15 09:21:11;;;;;;;10.70;5.33;;;;;;;5.34;100.00;97955.20;3834690;76;43762;-26
2020/12/15 09:26:19;;;;;;;11.80;7.00;;;;;;;5.35;100.00;97952.89;3847512;76;43431;-26
2020/12/15 09:31:24;;;;;;;17.03;10.03;;;;;;;5.34;100.00;97929.33;3859811;76;44128;-26
2020/12/15 09:36:30;;;;;;;13.40;7.83;;;;;;;5.45;100.00;97943.05;3843050;76;44067;-26
2020/12/15 09:41:37;;;;;;;13.43;7.67;;;;;;;5.50;100.00;97944.79;3847291;75;43686;-26
2020/12/15 09:46:43;;;;;;;15.37;8.23;;;;;;;5.57;100.00;97946.91;3837706;76;44110;-25
2020/12/15 09:51:49;;;;;;;11.57;6.93;;;;;;;5.61;100.00;97940.28;3854215;76;43717;-25
2020/12/15 09:56:55;;;;;;;8.77;5.97;;;;;;;5.62;100.00;97930.80;3868393;76;43982;-26
2020/12/15 10:02:01;;;;;;;9.17;5.70;;;;;;;5.68;100.00;97929.39;3847685;76;44422;-26
2020/12/15 10:07:09;;;;;;;8.70;5.80;;;;;;;5.81;100.00;97929.94;3861160;76;43510;-26
2020/12/15 10:12:16;;;;;;;9.13;6.27;;;;;;;5.89;100.00;97935.05;3854400;75;44043;-26
2020/12/15 10:17:22;;;;;;;8.10;5.40;;;;;;;5.92;100.00;97925.42;3856820;76;43672;-26
2020/12/15 10:22:28;;;;;;;10.40;5.93;;;;;;;5.95;100.00;97919.28;3858222;76;43926;-25
2020/12/15 10:27:35;;;;;;;8.00;5.70;;;;;;;5.96;100.00;97922.30;3856046;75;43401;-26
2020/12/15 10:32:41;;;;;;;7.60;4.97;;;;;;;6.05;100.00;97931.80;3856183;76;44043;-25
2020/12/15 10:37:48;;;;;;;10.67;6.20;;;;;;;6.12;100.00;97945.80;3869363;76;43357;-26
2020/12/15 10:42:54;;;;;;;9.90;5.97;;;;;;;6.15;100.00;97937.97;3864601;75;44095;-26
2020/12/15 10:48:02;;;;;;;11.07;6.13;;;;;;;6.20;100.00;97925.02;3849728;76;44149;-25
2020/12/15 10:53:10;;;;;;;7.87;5.30;;;;;;;6.26;100.00;97938.30;3859222;76;43987;-26
2020/12/15 10:58:16;;;;;;;8.50;5.50;;;;;;;6.38;100.00;97946.98;3855205;76;44030;-25
2020/12/15 11:03:21;;;;;;;8.87;5.83;;;;;;;6.37;100.00;97938.13;3889452;76;44087;-25
2020/12/15 11:08:27;;;;;;;8.60;5.77;;;;;;;6.41;100.00;97946.19;3887380;76;43423;-25
2020/12/15 11:13:33;;;;;;;8.33;5.60;;;;;;;6.40;100.00;97941.84;3870374;76;44078;-25
2020/12/15 11:18:39;;;;;;;7.70;5.37;;;;;;;6.46;100.00;97947.94;3877558;75;44047;-25
2020/12/15 11:23:45;;;;;;;8.20;5.33;;;;;;;6.54;100.00;97951.22;3831303;76;44223;-25
2020/12/15 11:28:50;;;;;;;8.27;5.67;;;;;;;6.56;100.00;97953.27;3892990;75;43790;-25
2020/12/15 11:33:57;;;;;;;8.67;5.60;;;;;;;6.77;100.00;97955.67;3913293;75;42758;-26
2020/12/15 11:39:03;;;;;;;8.03;5.53;;;;;;;6.88;100.00;97957.33;3868012;76;44116;-25
2020/12/15 11:44:09;;;;;;;8.17;5.33;;;;;;;7.02;100.00;97952.47;3897790;75;43015;-25
2020/12/15 11:49:15;;;;;;;8.33;5.63;;;;;;;7.07;100.00;97955.03;3912986;74;43765;-25
2020/12/15 11:54:21;;;;;;;7.27;5.37;;;;;;;7.13;100.00;97945.55;3880320;75;43741;-25
2020/12/15 11:59:27;;;;;;;6.93;4.90;;;;;;;7.16;100.00;97943.92;3913571;75;44697;-25
2020/12/15 12:04:33;;;;;;;7.97;5.40;;;;;;;7.24;100.00;97952.52;3897486;75;42841;-26
2020/12/15 12:09:40;;;;;;;7.77;4.93;;;;;;;7.32;100.00;97940.56;3890329;75;43718;-26
2020/12/15 12:14:46;;;;;;;7.57;4.93;;;;;;;7.38;100.00;97926.53;3904998;75;44025;-25
2020/12/15 12:19:54;;;;;;;7.47;4.67;;;;;;;7.43;98.58;97923.91;3862133;74;44075;-26
2020/12/15 12:25:00;;;;;;;6.57;4.87;;;;;;;7.55;97.75;97908.76;3857398;75;43710;-26
2020/12/15 12:30:06;;;;;;;8.10;5.73;;;;;;;7.72;96.36;97923.66;3904405;75;44021;-26
2020/12/15 12:35:12;;;;;;;8.87;5.70;;;;;;;7.84;99.09;97934.95;3845057;76;43315;-26
2020/12/15 12:40:19;;;;;;;6.47;4.50;;;;;;;7.87;98.67;97922.58;3834576;76;43681;-26
2020/12/15 12:45:25;;;;;;;8.67;5.57;;;;;;;7.89;96.92;97901.81;3831275;76;43718;-26
2020/12/15 12:50:31;;;;;;;7.63;5.20;;;;;;;7.98;96.70;97904.89;3858707;75;44073;-26
2020/12/15 12:55:37;;;;;;;8.17;4.90;;;;;;;8.10;98.17;97889.87;3846743;75;43511;-26
2020/12/15 13:00:46;;;;;;;6.10;4.33;;;;;;;8.16;98.28;97898.13;3878797;76;44637;-26
2020/12/15 13:05:52;;;;;;;5.83;4.47;;;;;;;8.24;99.25;97901.36;3865588;76;43994;-26
2020/12/15 13:10:58;;;;;;;6.93;4.90;;;;;;;8.27;98.95;97910.44;3837438;76;43415;-26
2020/12/15 13:16:04;;;;;;;8.10;5.30;;;;;;;8.21;97.86;97904.36;3859223;76;43394;-26
2020/12/15 13:21:10;;;;;;;9.27;5.60;;;;;;;8.14;94.81;97901.98;3865536;76;43685;-26
2020/12/15 13:26:21;;;;;;;7.07;5.07;;;;;;;8.11;94.91;97903.63;3869738;75;42722;-26
2020/12/15 13:31:24;;;;;;;7.83;5.10;;;;;;;8.05;99.64;97902.94;3850719;76;43758;-26
2020/12/15 13:36:44;;;;;;;7.50;5.10;;;;;;;8.04;98.50;97907.95;3851871;76;42650;-27
2020/12/15 13:41:51;;;;;;;10.00;5.60;;;;;;;8.04;97.67;97907.95;3834169;76;44341;-26
2020/12/15 13:46:57;;;;;;;9.10;5.87;;;;;;;8.08;98.67;97916.02;3833670;76;42802;-26
2020/12/15 13:52:03;;;;;;;13.20;8.90;;;;;;;8.09;99.43;97911.84;3846201;76;43685;-26
2020/12/15 13:57:09;;;;;;;11.53;7.43;;;;;;;8.01;99.03;97922.02;3874260;75;43387;-26
2020/12/15 14:02:15;;;;;;;9.17;6.30;;;;;;;7.97;97.66;97923.84;3876495;76;44024;-26
2020/12/15 14:07:21;;;;;;;8.40;5.93;;;;;;;7.95;95.95;97931.20;3848099;76;43242;-26
2020/12/15 14:12:27;;;;;;;9.77;6.00;;;;;;;7.98;98.92;97932.23;3843980;76;44775;-26
2020/12/15 14:17:34;;;;;;;8.43;5.50;;;;;;;7.99;100.00;97930.72;3833661;76;43724;-26
2020/12/15 14:22:39;;;;;;;8.03;5.20;;;;;;;7.95;100.00;97934.70;3846020;76;44092;-26
2020/12/15 14:27:46;;;;;;;7.17;5.13;;;;;;;7.93;100.00;97938.55;3840253;75;44049;-26
2020/12/15 14:32:54;;;;;;;7.53;5.50;;;;;;;7.88;100.00;97939.02;3870748;75;44027;-26
2020/12/15 14:38:00;;;;;;;8.33;6.00;;;;;;;7.86;100.00;97946.38;3858113;75;43990;-26
2020/12/15 14:43:05;;;;;;;8.30;5.40;;;;;;;7.84;100.00;97949.22;3888719;75;43194;-26
2020/12/15 14:48:12;;;;;;;8.93;6.03;;;;;;;7.82;100.00;97951.73;3892450;75;44082;-26
2020/12/15 14:53:18;;;;;;;9.20;6.13;;;;;;;7.80;99.76;97965.78;3911776;75;44082;-26
2020/12/15 14:58:25;;;;;;;7.53;5.40;;;;;;;7.79;100.00;97966.27;3900116;74;43679;-26
2020/12/15 15:03:31;;;;;;;9.00;6.03;;;;;;;7.77;100.00;97972.78;3911741;74;43906;-27
2020/12/15 15:08:38;;;;;;;8.03;5.43;;;;;;;7.74;100.00;97985.16;3901195;74;43374;-26
2020/12/15 15:13:44;;;;;;;9.23;6.27;;;;;;;7.66;100.00;97977.88;3887644;75;44084;-25
2020/12/15 15:18:51;;;;;;;8.53;5.93;;;;;;;7.62;100.00;97986.73;3896811;75;44132;-26
2020/12/15 15:23:57;;;;;;;7.83;5.73;;;;;;;7.56;100.00;97985.50;3874414;75;42875;-25
2020/12/15 15:29:03;;;;;;;7.70;5.57;;;;;;;7.49;100.00;97991.63;3854737;75;44046;-25
2020/12/15 15:34:09;;;;;;;8.10;5.83;;;;;;;7.50;100.00;97990.16;3846955;76;44073;-25
2020/12/15 15:39:16;;;;;;;11.00;6.67;;;;;;;7.48;100.00;98002.00;3843997;76;43127;-25
2020/12/15 15:44:21;;;;;;;9.43;6.47;;;;;;;7.47;100.00;98002.51;3826380;76;42802;-26
2020/12/15 15:49:27;;;;;;;10.13;6.50;;;;;;;7.45;100.00;97995.63;3838337;76;43316;-26
2020/12/15 15:54:34;;;;;;;10.07;6.50;;;;;;;7.40;100.00;98002.27;3855839;76;44023;-25
2020/12/15 15:59:40;;;;;;;12.03;7.90;;;;;;;7.38;100.00;98001.57;3847298;76;44030;-26
2020/12/15 16:04:48;;;;;;;9.20;6.40;;;;;;;7.37;100.00;98014.63;3845773;76;43655;-26
2020/12/15 16:09:55;;;;;;;16.67;6.60;;;;;;;7.36;100.00;98016.95;3848539;76;43425;-26
2020/12/15 16:15:01;;;;;;;9.80;6.77;;;;;;;7.32;100.00;98023.62;3833641;76;43698;-25
2020/12/15 16:20:08;;;;;;;9.33;7.00;;;;;;;7.25;100.00;98038.59;3848089;76;43668;-26
2020/12/15 16:25:14;;;;;;;10.33;7.20;;;;;;;7.25;100.00;98047.50;3845657;76;43342;-25
2020/12/15 16:30:19;;;;;;;9.90;7.30;;;;;;;7.23;100.00;98045.97;3837857;76;44082;-25
2020/12/15 16:35:26;;;;;;;12.17;8.07;;;;;;;7.26;100.00;98055.03;3842348;76;43754;-25
2020/12/15 16:40:33;;;;;;;11.00;7.37;;;;;;;7.20;100.00;98058.31;3876659;75;43721;-25
2020/12/15 16:45:39;;;;;;;11.37;8.40;;;;;;;7.20;100.00;98051.63;3873632;76;75360;-25
2020/12/15 16:50:45;;;;;;;11.87;7.37;;;;;;;7.16;100.00;98064.47;3887629;75;43374;-25
2020/12/15 16:55:51;;;;;;;12.10;7.73;;;;;;;7.09;100.00;98063.36;3829797;76;44014;-25
2020/12/15 17:00:57;;;;;;;10.97;7.23;;;;;;;7.05;100.00;98064.66;3856833;75;44035;-26
2020/12/15 17:06:03;;;;;;;12.03;7.60;;;;;;;7.02;100.00;98072.48;3865243;75;43623;-26
2020/12/15 17:11:09;;;;;;;11.70;8.10;;;;;;;6.96;100.00;98069.55;3873008;75;44912;-26
2020/12/15 17:16:15;;;;;;;12.40;7.93;;;;;;;6.90;100.00;98063.80;3873610;76;44067;-25
2020/12/15 17:21:23;;;;;;;12.23;8.53;;;;;;;6.92;100.00;98062.30;3832498;76;43681;-25
2020/12/15 17:26:30;;;;;;;11.20;7.77;;;;;;;6.87;100.00;98062.75;3832682;76;43403;-26
2020/12/15 17:31:36;;;;;;;12.17;8.20;;;;;;;6.85;100.00;98073.27;3761488;78;43677;-25
2020/12/15 17:36:42;;;;;;;12.93;8.37;;;;;;;6.84;100.00;98072.91;3782167;78;44221;-27
2020/12/15 17:41:50;;;;;;;12.47;8.40;;;;;;;6.82;100.00;98090.44;3829972;76;43909;-25
2020/12/15 17:46:56;;;;;;;12.03;8.03;;;;;;;6.66;100.00;98094.24;3823485;77;42780;-25
2020/12/15 17:52:02;;;;;;;11.03;7.37;;;;;;;6.58;100.00;98089.13;3812866;77;43686;-26
2020/12/15 17:57:09;;;;;;;10.80;8.17;;;;;;;6.55;100.00;98091.22;3727608;78;44061;-26
2020/12/15 18:02:15;;;;;;;12.10;8.20;;;;;;;6.59;100.00;98097.98;3798083;77;44154;-26
2020/12/15 18:07:22;;;;;;;13.77;9.30;;;;;;;6.54;100.00;98093.55;3905564;74;43674;-26
2020/12/15 18:12:28;;;;;;;15.07;8.73;;;;;;;6.51;100.00;98088.50;3911542;74;43344;-26
2020/12/15 18:17:35;;;;;;;12.77;8.23;;;;;;;6.47;100.00;98081.23;3916702;74;43334;-25
2020/12/15 18:22:41;;;;;;;11.33;7.87;;;;;;;6.43;100.00;98095.39;3889647;75;43712;-25
2020/12/15 18:27:47;;;;;;;15.13;8.77;;;;;;;6.43;100.00;98100.75;3862385;75;43342;-25
2020/12/15 18:32:54;;;;;;;13.23;8.90;;;;;;;6.41;100.00;98104.05;3886135;75;43370;-25
2020/12/15 18:37:59;;;;;;;13.23;8.10;;;;;;;6.47;100.00;98114.20;3896230;76;43415;-25
2020/12/15 18:43:05;;;;;;;14.80;9.00;;;;;;;6.47;100.00;98128.92;3842177;76;43333;-26
2020/12/15 18:48:11;;;;;;;14.80;9.17;;;;;;;6.46;100.00;98140.61;3833337;75;43108;-25
2020/12/15 18:53:18;;;;;;;13.53;8.87;;;;;;;6.40;100.00;98149.22;3752723;77;43305;-25
2020/12/15 18:58:25;;;;;;;15.23;9.47;;;;;;;6.45;100.00;98163.52;3740797;78;43507;-25
2020/12/15 19:03:31;;;;;;;20.77;14.13;;;;;;;6.43;100.00;98163.63;3749845;78;44142;-25
2020/12/15 19:08:37;;;;;;;14.60;9.60;;;;;;;6.42;100.00;98167.80;3734078;78;43328;-25
2020/12/15 19:13:43;;;;;;;16.70;10.10;;;;;;;6.41;100.00;98173.63;3728000;78;43435;-25
2020/12/15 19:18:49;;;;;;;14.57;9.50;;;;;;;6.38;100.00;98186.45;3718784;77;44002;-24
2020/12/15 19:23:58;;;;;;;15.77;10.33;;;;;;;6.36;100.00;98189.28;3732024;78;43412;-25
2020/12/15 19:29:03;;;;;;;15.20;9.60;;;;;;;6.37;100.00;98205.69;3722801;78;44138;-25
2020/12/15 19:34:09;;;;;;;14.97;9.87;;;;;;;6.39;100.00;98193.02;3711787;79;43353;-25
2020/12/15 19:39:15;;;;;;;15.70;10.10;;;;;;;6.37;100.00;98186.95;3733653;78;43659;-25
2020/12/15 19:44:21;;;;;;;16.27;10.17;;;;;;;6.40;100.00;98193.38;3751552;79;43712;-25
2020/12/15 19:49:27;;;;;;;17.23;10.77;;;;;;;6.37;100.00;98203.48;3759978;77;43678;-26
2020/12/15 19:54:33;;;;;;;14.30;9.63;;;;;;;6.37;100.00;98203.48;3733893;79;43713;-25
2020/12/15 19:59:39;;;;;;;16.07;10.57;;;;;;;6.41;100.00;98208.92;3712590;79;44683;-25
2020/12/15 20:04:45;;;;;;;18.57;11.57;;;;;;;6.38;100.00;98204.70;3736989;79;44075;-25
2020/12/15 20:09:53;;;;;;;14.60;9.77;;;;;;;6.38;100.00;98215.41;3737825;78;43684;-25
2020/12/15 20:14:59;;;;;;;16.37;10.40;;;;;;;6.44;100.00;98212.16;3748231;79;43241;-25
2020/12/15 20:20:06;;;;;;;17.67;11.17;;;;;;;6.46;100.00;98208.84;3766702;79;44083;-26
2020/12/15 20:25:12;;;;;;;16.60;10.23;;;;;;;6.46;100.00;98220.89;3736775;77;44035;-26
2020/12/15 20:30:18;;;;;;;16.23;10.07;;;;;;;6.53;100.00;98214.97;3705119;80;44222;-26
2020/12/15 20:35:24;;;;;;;14.27;9.37;;;;;;;6.57;100.00;98223.08;3741767;79;43400;-25
2020/12/15 20:40:34;;;;;;;15.60;9.87;;;;;;;6.58;100.00;98218.94;3706316;79;44096;-25
2020/12/15 20:45:40;;;;;;;14.77;9.50;;;;;;;6.59;100.00;98228.63;3745134;79;43415;-25
2020/12/15 20:50:47;;;;;;;14.57;9.97;;;;;;;6.61;100.00;98229.34;3809557;76;45273;-25
2020/12/15 20:55:53;;;;;;;14.40;9.70;;;;;;;6.62;100.00;98231.03;3836648;75;43535;-25
2020/12/15 21:00:59;;;;;;;16.60;10.27;;;;;;;6.63;100.00;98236.74;3865830;76;43356;-25
2020/12/15 21:06:08;;;;;;;17.20;10.60;;;;;;;6.65;100.00;98235.25;3831472;76;44097;-25
2020/12/15 21:11:14;;;;;;;14.10;9.33;;;;;;;6.65;100.00;98217.85;3849368;76;44271;-25
2020/12/15 21:16:21;;;;;;;16.97;10.70;;;;;;;6.66;100.00;98221.39;3865459;76;43318;-25
2020/12/15 21:21:27;;;;;;;18.43;10.73;;;;;;;6.62;100.00;98232.87;3855185;76;43769;-26
2020/12/15 21:26:34;;;;;;;17.97;10.57;;;;;;;6.62;100.00;98224.85;3818767;75;43718;-25
2020/12/15 21:31:39;;;;;;;16.07;10.33;;;;;;;6.61;100.00;98237.88;3833971;76;43672;-26
2020/12/15 21:36:50;;;;;;;15.50;10.00;;;;;;;6.66;100.00;98244.98;3855126;76;43678;-23
2020/12/15 21:41:57;;;;;;;15.73;10.63;;;;;;;6.73;100.00;98251.48;3860699;76;44194;-23
2020/12/15 21:47:03;;;;;;;15.97;10.03;;;;;;;6.82;100.00;98253.78;3828141;76;44014;-23
2020/12/15 21:52:11;;;;;;;14.67;10.10;;;;;;;6.83;100.00;98254.13;3861738;76;43126;-23
2020/12/15 21:57:17;;;;;;;17.13;10.43;;;;;;;6.89;100.00;98256.26;3813378;76;42961;-23
2020/12/15 22:02:23;;;;;;;14.97;10.10;;;;;;;6.94;100.00;98269.22;3810713;75;44600;-23
2020/12/15 22:07:29;;;;;;;17.07;10.30;;;;;;;6.96;100.00;98268.59;3846721;76;44555;-23
2020/12/15 22:12:34;;;;;;;14.13;9.57;;;;;;;6.97;100.00;98270.28;3828377;76;43196;-24
2020/12/15 22:17:40;;;;;;;15.47;10.10;;;;;;;7.03;100.00;98276.40;3844138;76;44532;-23
2020/12/15 22:22:46;;;;;;;14.27;9.60;;;;;;;7.02;100.00;98280.06;3822532;76;43733;-23
2020/12/15 22:27:52;;;;;;;13.80;9.20;;;;;;;7.11;100.00;98290.42;3874380;75;44035;-23
2020/12/15 22:32:58;;;;;;;12.70;8.93;;;;;;;7.11;100.00;98291.77;3813965;75;43493;-23
2020/12/15 22:38:04;;;;;;;14.37;9.27;;;;;;;7.14;100.00;98297.32;3836723;76;44074;-23
2020/12/15 22:43:10;;;;;;;13.50;8.93;;;;;;;7.15;100.00;98301.22;3806216;76;43386;-22
2020/12/15 22:48:17;;;;;;;15.27;9.30;;;;;;;7.19;100.00;98309.81;3854861;76;43389;-23
2020/12/15 22:53:25;;;;;;;13.13;8.70;;;;;;;7.20;100.00;98308.83;3830691;76;44440;-23
2020/12/15 22:58:30;;;;;;;13.77;9.23;;;;;;;7.21;100.00;98316.70;3854929;76;43649;-23
2020/12/15 23:03:36;;;;;;;15.90;9.80;;;;;;;7.21;100.00;98326.59;3807633;75;43345;-23
2020/12/15 23:08:42;;;;;;;14.93;9.63;;;;;;;7.14;100.00;98338.84;3843668;76;44038;-23
2020/12/15 23:13:48;;;;;;;16.37;10.27;;;;;;;7.20;100.00;98339.64;3821275;76;43518;-23
2020/12/15 23:18:54;;;;;;;17.33;10.03;;;;;;;7.19;100.00;98345.47;3855999;76;43464;-23
2020/12/15 23:23:59;;;;;;;15.77;10.33;;;;;;;7.17;100.00;98334.55;3807338;76;43998;-23
2020/12/15 23:29:05;;;;;;;17.37;10.40;;;;;;;7.21;100.00;98345.35;3884502;75;44069;-23
2020/12/15 23:34:11;;;;;;;14.87;9.63;;;;;;;7.20;100.00;98343.66;3833491;76;43690;-23
2020/12/15 23:39:17;;;;;;;14.70;10.00;;;;;;;7.26;100.00;98344.41;3812638;75;44017;-23
2020/12/15 23:44:23;;;;;;;14.83;9.93;;;;;;;7.27;100.00;98350.64;3810946;76;43326;-23
2020/12/15 23:49:30;;;;;;;16.53;10.17;;;;;;;7.34;100.00;98353.95;3848397;76;44564;-23
2020/12/15 23:54:37;;;;;;;15.30;9.93;;;;;;;7.35;100.00;98354.27;3846498;76;76319;-23
2020/12/15 23:59:43;;;;;;;14.47;9.90;;;;;;;7.42;100.00;98357.74;3845132;76;43452;-23
